Weather observations for the past three days for
SAVANNAH/HARDIN CO
Imperial (Metric)
Date Time (cdt) Wind (mph) Vis. (mi.) Weather Sky Cond. Temperature (ºF) Relative Humidity Wind Chill (°F) Heat Index (°F) Pressure Precipitation (in)
Air Dwpt 6 hour altimeter (in) sea level (mb) 1 hr 3 hr 6 hr
Max. Min.
05 22:50 S 13 G 20 10.00 Overcast OVC038 71.6 69.8 94% 29.78 0.0
05 22:35 S 12 G 18 10.00 Overcast OVC039 71.6 69.8 94% 29.78 0.0
05 22:10 S 14 10.00 Overcast BKN040 OVC048 71.6 69.8 94% 29.78 0.0
05 21:50 S 13 G 21 10.00 Overcast OVC040 71.6 69.8 94% 29.78 0.0
05 21:35 S 12 10.00 Overcast OVC041 71.6 69.8 94% 29.78 0.0
05 21:10 S 14 10.00 Overcast BKN042 BKN050 OVC075 71.6 69.8 94% 29.76 0.0
05 20:50 S 15 10.00 Overcast BKN041 BKN050 OVC075 71.6 69.8 94% 29.76 0.0
05 20:35 S 9 10.00 Overcast OVC039 71.6 69.8 94% 29.78 0.0
05 20:10 S 15 10.00 Overcast OVC041 71.6 69.8 94% 29.76 0.0
05 19:50 S 21 G 29 10.00 Overcast and Breezy SCT036 OVC042 71.6 68 88% 29.76 0.0
05 19:35 S 16 G 28 10.00 Overcast BKN035 OVC041 71.6 68 88% 29.75 0.0
05 19:10 S 15 10.00 Overcast OVC036 71.6 68 88% 29.76 0.0
05 18:55 S 12 G 20 10.00 Overcast OVC037 71.6 68 88% 29.76 0.0
05 18:30 S 12 10.00 Overcast OVC039 71.6 68 88% 29.76 0.0
05 18:10 S 14 10.00 Overcast OVC040 71.6 66.2 83% 29.76 0.0
05 17:55 S 13 10.00 Overcast OVC039 71.6 66.2 83% 29.77 0.0
05 17:30 S 13 G 18 10.00 Overcast OVC040 71.6 66.2 83% 29.77 0.0
05 17:10 S 14 10.00 Overcast SCT038 BKN045 OVC070 71.6 66.2 83% 29.78 0.0
05 16:55 S 13 G 21 10.00 Overcast SCT037 BKN060 OVC070 71.6 66.2 83% 29.78 0.0
05 16:30 S 14 10.00 Overcast BKN038 OVC047 71.6 64.4 78% 29.79 0.0
05 16:10 S 10 G 25 10.00 Overcast SCT040 BKN047 OVC080 73.4 64.4 74% 29.79 0.0
05 15:55 S 16 G 22 10.00 Mostly Cloudy BKN042 BKN080 73.4 62.6 69% 29.79 0.0
05 15:30 S 15 G 25 10.00 Mostly Cloudy FEW046 BKN080 73.4 62.6 69% 29.79 0.0
05 15:10 S 18 G 24 10.00 Partly Cloudy SCT090 75.2 62.6 65% 77 29.79 0.0
05 14:55 S 16 G 29 10.00 Partly Cloudy SCT095 73.4 64.4 74% 29.79 0.0
05 14:30 S 15 G 23 10.00 Partly Cloudy SCT110 71.6 64.4 78% 29.8 0.0
05 14:10 S 13 G 20 10.00 A Few Clouds FEW100 69.8 68 94% 29.81 0.0
05 13:55 S 13 10.00 Fair CLR 68 68 100% 29.82 0.0 0.01
05 13:30 S 9 10.00 Fair CLR 66.2 66.2 100% 29.83 0.0
05 13:10 S 7 8.00 Fair CLR 64.4 64.4 100% 29.84 0.0
05 12:55 SE 9 4.00 Fog/Mist CLR 64.4 64.4 100% 29.83 0.0 0.05
05 12:30 SE 8 6.00 Fog/Mist CLR 64.4 64.4 100% 29.86 0.0
05 12:10 S 10 5.00 Fog/Mist CLR 62.6 62.6 100% 29.87 0.0
05 11:55 S 9 6.00 Fog/Mist CLR 64.4 64.4 100% 29.87 0.0 0.02
05 11:30 SE 8 4.00 Fog/Mist CLR 64.4 64.4 100% 29.87 0.0
05 11:10 S 8 5.00 Fog/Mist FEW044 FEW070 FEW090 66.2 66.2 100% 29.87 0.0
05 10:55 S 12 10.00 Partly Cloudy FEW060 SCT090 SCT110 66.2 64.4 94% 29.88 0.0
05 10:30 SW 8 10.00 Overcast OVC060 68 62.6 83% 29.9 0.0
05 10:10 SW 8 G 15 10.00 Overcast OVC060 68 62.6 83% 29.9 0.0
05 09:55 SW 10 10.00 Mostly Cloudy BKN060 68 60.8 78% 29.9 0.0
05 09:30 SW 12 10.00 Mostly Cloudy BKN060 68 60.8 78% 29.89 0.0
05 09:10 S 10 10.00 Fair CLR 66.2 59 78% 29.89 0.0
05 08:55 S 10 10.00 Fair CLR 66.2 60.8 83% 29.89 0.0
05 08:30 SW 10 10.00 Fair CLR 64.4 59 83% 29.88 0.0
05 08:10 S 8 10.00 Fair CLR 64.4 59 83% 29.89 0.0
05 07:55 S 8 10.00 Fair CLR 64.4 59 83% 29.87 0.0
05 07:30 S 10 10.00 Fair CLR 62.6 59 88% 29.87 0.0
05 07:10 S 8 10.00 Fair CLR 62.6 59 88% 29.86 0.0
05 06:55 S 7 10.00 Fair CLR 62.6 60.8 94% 29.85 0.0
05 06:30 S 7 10.00 Fair CLR 60.8 60.8 100% 29.85 0.0
05 06:10 S 6 10.00 Fair CLR 60.8 60.8 100% 29.84 0.0
05 05:55 S 6 10.00 Fair CLR 60.8 60.8 100% 29.84 0.0
05 05:30 S 6 9.00 Fair CLR 60.8 60.8 100% 29.83 0.0
05 05:10 S 6 8.00 Fair CLR 60.8 60.8 100% 29.83 0.0
05 04:55 S 6 5.00 Fog/Mist CLR 59 59 100% 29.83 0.0
05 04:30 SE 5 4.00 Fog/Mist CLR 59 59 100% 29.82 0.0
05 04:10 S 5 10.00 Fair CLR 60.8 60.8 100% 29.81 0.0
05 03:55 S 7 10.00 Fair CLR 60.8 60.8 100% 29.8 0.0
05 03:30 S 5 5.00 Fog/Mist CLR 60.8 60.8 100% 29.81 0.0
05 03:10 S 6 4.00 Fog/Mist CLR 59 59 100% 29.81 0.0
05 02:55 S 6 3.00 Fog/Mist CLR 59 59 100% 29.82 0.0
05 02:30 S 5 4.00 Fog/Mist CLR 59 59 100% 29.84 0.0
05 02:10 SE 5 3.00 Fog/Mist CLR 57.2 57.2 100% 29.84 0.0
05 01:50 SE 5 4.00 Fog/Mist CLR 59 59 100% 29.85 0.0
05 01:35 S 3 3.00 Fog/Mist CLR 60.8 59 94% 29.85 0.0
05 01:10 S 5 5.00 Fog/Mist CLR 59 59 100% 29.85 0.0
05 00:50 S 3 4.00 Fog/Mist CLR 60.8 60.8 100% 29.86 0.0
05 00:35 S 3 7.00 Fair CLR 60.8 60.8 100% 29.86 0.0
05 00:10 S 5 7.00 Fair CLR 62.6 60.8 94% 29.86 0.0
04 23:50 SE 5 8.00 Fair CLR 60.8 59 94% 29.86 0.0
04 23:35 S 5 5.00 Fog/Mist CLR 62.6 60.8 94% 29.86 0.0
04 23:10 Calm 10.00 Fair CLR 62.6 60.8 94% 29.85 0.0
04 22:50 SE 3 4.00 Fog/Mist CLR 60.8 60.8 100% 29.85 0.0
04 22:35 SE 3 6.00 Fog/Mist CLR 62.6 60.8 94% 29.85 0.0
04 22:10 Calm 10.00 Fair CLR 62.6 60.8 94% 29.85 0.0
04 21:50 Calm 10.00 Fair CLR 64.4 59 83% 29.84 0.0
04 21:35 Calm 10.00 Fair CLR 64.4 59 83% 29.84 0.0
04 21:10 S 3 9.00 Fair CLR 64.4 60.8 88% 29.84 0.0
04 20:50 S 3 4.00 Fair with Haze CLR 64.4 59 83% 29.84 0.0
04 20:35 S 3 8.00 Fair CLR 68 53.6 60% 29.84 0.0
04 20:10 S 6 10.00 Fair CLR 73.4 50 44% 29.83 0.0
04 19:50 SW 7 10.00 A Few Clouds FEW070 73.4 50 44% 29.83 0.0
04 19:35 SW 6 10.00 Fair CLR 73.4 50 44% 29.83 0.0
04 19:10 SW 7 10.00 Fair CLR 75.2 50 41% 78 29.83 0.0
04 18:55 SW 10 G 20 10.00 Fair CLR 77 48.2 36% 78 29.82 0.0
04 18:30 SW 12 G 18 10.00 Fair CLR 78.8 48.2 34% 79 29.83 0.0
04 18:10 SW 15 G 22 10.00 Fair CLR 78.8 48.2 34% 79 29.83 0.0
04 17:55 SW 14 G 20 10.00 Fair CLR 78.8 48.2 34% 79 29.83 0.0
04 17:30 SW 14 G 22 10.00 Fair CLR 80.6 50 34% 80 29.83 0.0
04 17:10 SW 12 G 24 10.00 Fair CLR 80.6 48.2 32% 80 29.83 0.0
04 16:55 SW 17 G 25 10.00 Fair CLR 80.6 48.2 32% 80 29.83 0.0
04 16:30 SW 22 G 28 10.00 Fair and Breezy CLR 80.6 46.4 30% 80 29.83 0.0
04 16:10 SW 18 G 26 10.00 Fair CLR 80.6 46.4 30% 80 29.84 0.0
04 15:55 SW 17 G 30 10.00 Fair CLR 80.6 46.4 30% 80 29.84 0.0
04 15:30 SW 18 G 26 10.00 Fair CLR 80.6 46.4 30% 80 29.85 0.0
04 15:10 SW 14 G 26 10.00 Fair CLR 80.6 50 34% 80 29.86 0.0
04 14:55 SW 14 G 25 10.00 Fair CLR 80.6 48.2 32% 80 29.87 0.0
04 14:30 SW 12 G 17 10.00 Fair CLR 80.6 51.8 37% 80 29.88 0.0
04 14:10 SW 14 G 25 10.00 Fair CLR 78.8 50 37% 79 29.88 0.0
04 13:55 SW 13 G 24 10.00 Fair CLR 80.6 50 34% 80 29.88 0.0
04 13:30 W 14 G 23 10.00 Fair CLR 80.6 50 34% 80 29.89 0.0
04 13:10 SW 15 10.00 A Few Clouds FEW065 78.8 51.8 39% 79 29.9 0.0
04 12:55 SW 10 G 23 10.00 Fair CLR 78.8 51.8 39% 79 29.9 0.0
04 12:30 SW 13 G 20 10.00 Fair CLR 78.8 51.8 39% 79 29.91 0.0
04 12:10 S 14 G 22 10.00 Fair CLR 77 51.8 42% 78 29.92 0.0
04 11:55 SW 12 G 21 10.00 Fair CLR 78.8 53.6 42% 79 29.92 0.0
04 11:30 SW 16 10.00 Fair CLR 77 53.6 44% 78 29.93 0.0
04 11:10 SW 12 G 20 10.00 Fair CLR 77 53.6 44% 78 29.94 0.0
04 10:55 SW 9 G 18 10.00 Fair CLR 75.2 53.6 47% 78 29.95 0.0
04 10:30 SW 12 G 20 10.00 Fair CLR 73.4 53.6 50% 29.96 0.0
04 10:10 SW 9 10.00 Fair CLR 73.4 53.6 50% 29.96 0.0
04 09:55 SW 8 G 18 10.00 Fair CLR 71.6 53.6 53% 29.96 0.0
04 09:30 SW 12 10.00 Fair CLR 69.8 53.6 57% 29.96 0.0
04 09:10 SW 14 G 21 10.00 Fair CLR 68 53.6 60% 29.97 0.0
04 08:55 SW 12 10.00 Fair CLR 68 53.6 60% 29.97 0.0
04 08:30 SW 12 G 20 10.00 Fair CLR 66.2 53.6 64% 29.97 0.0
04 08:10 SW 14 G 21 10.00 Fair CLR 64.4 53.6 68% 29.96 0.0
04 07:55 SW 10 G 17 10.00 Fair CLR 64.4 53.6 68% 29.96 0.0
04 07:30 SW 13 G 20 10.00 Fair CLR 62.6 51.8 68% 29.96 0.0
04 07:10 S 12 10.00 Fair CLR 62.6 51.8 68% 29.96 0.0
04 06:55 S 10 10.00 Fair CLR 60.8 51.8 72% 29.95 0.0
04 06:30 S 10 10.00 Fair CLR 60.8 51.8 72% 29.95 0.0
04 06:10 S 8 10.00 Fair CLR 59 51.8 77% 29.95 0.0
04 05:55 S 7 10.00 Fair CLR 59 51.8 77% 29.94 0.0
04 05:30 S 6 10.00 Fair CLR 55.4 55.4 100% 29.94 0.0
04 05:10 S 5 10.00 Fair CLR 55.4 55.4 100% 29.94 0.0
04 04:55 S 5 10.00 Fair CLR 53.6 53.6 100% 29.95 0.0
04 04:30 Vrbl 6 G 12 10.00 Fair CLR 55.4 53.6 94% 29.95 0.0
04 04:10 S 7 10.00 Fair CLR 55.4 51.8 88% 29.95 0.0
04 03:55 S 6 10.00 Fair CLR 57.2 50 77% 29.95 0.0
04 03:30 S 7 10.00 Fair CLR 59 48.2 68% 29.95 0.0
04 03:10 S 7 10.00 Fair CLR 59 48.2 68% 29.95 0.0
04 02:55 S 7 10.00 Fair CLR 59 48.2 68% 29.95 0.0
04 02:30 S 8 10.00 Fair CLR 59 48.2 68% 29.96 0.0
04 02:05 S 7 10.00 Fair CLR 55.4 51.8 88% 29.97 0.0
04 01:50 S 6 10.00 Fair CLR 53.6 53.6 100% 29.97 0.0
04 01:35 S 5 10.00 Fair CLR 53.6 53.6 100% 29.97 0.0
04 01:10 S 6 10.00 Fair CLR 53.6 53.6 100% 29.98 0.0
04 00:50 S 6 10.00 Fair CLR 55.4 55.4 100% 29.99 0.0
04 00:35 S 6 10.00 Fair CLR 55.4 55.4 100% 29.98 0.0
04 00:10 S 6 10.00 Fair CLR 57.2 53.6 88% 29.98 0.0
03 23:50 S 6 10.00 Fair CLR 55.4 55.4 100% 29.99 0.0
03 23:25 S 7 10.00 Fair CLR 55.4 55.4 100% 30 0.0
03 23:10 S 6 10.00 Fair CLR 57.2 53.6 88% 30 0.0
03 22:50 S 5 10.00 Fair CLR 55.4 55.4 100% 30 0.0
03 22:35 S 5 10.00 Fair CLR 55.4 55.4 100% 30.01 0.0
03 22:10 S 5 10.00 Fair CLR 55.4 53.6 94% 30.01 0.0
03 21:50 Calm 10.00 Fair CLR 57.2 53.6 88% 30.01 0.0
03 21:35 Calm 10.00 Fair CLR 57.2 51.8 82% 30.01 0.0
03 21:10 S 3 10.00 Fair CLR 57.2 51.8 82% 30 0.0
03 20:50 S 3 10.00 Fair CLR 55.4 55.4 100% 30 0.0
03 20:35 Calm 10.00 Fair CLR 57.2 53.6 88% 30 0.0
03 20:10 Calm 10.00 Fair CLR 60.8 50 68% 29.99 0.0
03 19:50 Calm 10.00 Fair CLR 60.8 50 68% 29.99 0.0
03 19:35 Calm 10.00 Fair CLR 66.2 44.6 46% 29.99 0.0
03 19:10 SW 3 10.00 Fair CLR 69.8 41 35% 29.99 0.0
03 18:50 SW 7 10.00 Fair CLR 69.8 39.2 33% 29.99 0.0
03 18:30 SW 10 10.00 Fair CLR 71.6 39.2 31% 29.99 0.0
03 18:10 SW 12 10.00 Fair CLR 71.6 39.2 31% 30 0.0
03 17:30 W 8 10.00 Fair CLR 71.6 39.2 31% 30.01 0.0
03 17:10 Vrbl 5 G 12 10.00 Fair CLR 71.6 39.2 31% 30.02 0.0
03 16:50 Calm 10.00 Fair CLR 71.6 37.4 29% 30.02 0.0
03 16:30 W 7 G 16 10.00 Fair CLR 71.6 39.2 31% 30.03 0.0
03 16:10 W 9 10.00 Fair CLR 71.6 39.2 31% 30.04 0.0
03 15:45 Calm 10.00 Fair CLR 69.8 37.4 31% 30.05 0.0
03 15:30 W 13 G 20 10.00 Fair CLR 71.6 37.4 29% 30.06 0.0
03 15:10 SW 10 10.00 Fair CLR 69.8 37.4 31% 30.07 0.0
03 14:50 Vrbl 6 G 15 10.00 Fair CLR 69.8 37.4 31% 30.09 0.0
03 14:30 SW 6 G 14 10.00 Fair CLR 69.8 37.4 31% 30.09 0.0
03 14:10 W 8 G 15 10.00 Fair CLR 69.8 37.4 31% 30.1 0.0
03 13:50 SW 6 G 14 10.00 Fair CLR 68 37.4 33% 30.11 0.0
03 13:30 Vrbl 3 10.00 Fair CLR 68 37.4 33% 30.12 0.0
03 13:05 SW 13 10.00 Fair CLR 68 37.4 33% 30.13 0.0
03 12:50 S 8 10.00 Fair CLR 66.2 37.4 35% 30.14 0.0
03 12:30 SW 6 10.00 Fair CLR 66.2 33.8 30% 30.15 0.0
03 12:10 Calm 10.00 Fair CLR 66.2 35.6 32% 30.16 0.0
03 11:50 Vrbl 5 G 13 10.00 Fair CLR 64.4 33.8 32% 30.16 0.0
03 11:30 Calm 10.00 Fair CLR 64.4 37.4 37% 30.17 0.0
03 11:10 Calm 10.00 Fair CLR 62.6 35.6 37% 30.17 0.0
03 10:50 Calm 10.00 Fair CLR 62.6 35.6 37% 30.18 0.0
03 10:20 Vrbl 7 10.00 Fair CLR 60.8 37.4 42% 30.19 0.0
03 10:10 Vrbl 3 10.00 Fair CLR 60.8 37.4 42% 30.19 0.0
03 09:50 SE 7 10.00 Fair CLR 59 35.6 42% 30.19 0.0
03 09:30 SW 6 10.00 Fair CLR 59 44.6 59% 30.19 0.0
03 09:10 S 5 10.00 Fair CLR 55.4 46.4 72% 30.18 0.0
03 08:50 S 6 10.00 Fair CLR 55.4 48.2 77% 30.18 0.0
03 08:30 S 6 10.00 Fair CLR 51.8 48.2 88% 30.18 0.0
03 08:10 Calm 10.00 Fair CLR 50 50 100% 30.18 0.0
03 07:50 Calm 0.00 NULL NULL 46.4 46.4 100% 30.18 0.0
03 07:30 S 3 10.00 Fair CLR 44.6 44.6 100% 30.18 0.0
03 07:10 Calm 10.00 Fair CLR 41 41 100% 30.17 0.0
03 06:45 Calm 10.00 Fair CLR 39.2 39.2 100% 30.16 0.0
03 06:30 Calm 10.00 Fair CLR 39.2 39.2 100% 30.15 0.0
03 06:10 Calm 9.00 Fair CLR 37.4 37.4 100% 30.15 0.0
03 05:50 Calm 10.00 Fair CLR 39.2 39.2 100% 30.14 0.0
03 05:30 Calm 10.00 Fair CLR 39.2 39.2 100% 30.14 0.0
03 05:10 Calm 10.00 Fair CLR 39.2 39.2 100% 30.13 0.0
03 04:50 Calm 10.00 Fair CLR 39.2 39.2 100% 30.13 0.0
03 04:30 Calm 10.00 Fair CLR 39.2 39.2 100% 30.13 0.0
03 04:05 Calm 10.00 Fair CLR 41 41 100% 30.13 0.0
03 03:50 Calm 10.00 Fair CLR 41 41 100% 30.13 0.0
03 03:30 Calm 10.00 Fair CLR 41 41 100% 30.13 0.0
03 03:10 Calm 10.00 Fair CLR 41 41 100% 30.12 0.0
03 02:50 Calm 10.00 Fair CLR 41 41 100% 30.13 0.0
03 02:15 SW 5 10.00 Fair CLR 42.8 42.8 100% 41 30.12 0.0
03 02:10 Calm 10.00 Fair CLR 42.8 42.8 100% 30.11 0.0
03 01:50 Calm 10.00 Fair CLR 42.8 42.8 100% 30.12 0.0
03 01:35 Calm 10.00 Fair CLR 42.8 42.8 100% 30.12 0.0
03 01:10 Calm 10.00 A Few Clouds FEW043 44.6 44.6 100% 30.12 0.0
03 00:50 Calm 10.00 A Few Clouds FEW043 FEW055 44.6 44.6 100% 30.12 0.0
03 00:35 Calm 10.00 Fair CLR 46.4 46.4 100% 30.12 0.0
03 00:10 Calm 10.00 A Few Clouds FEW043 FEW050 46.4 46.4 100% 30.11 0.0
02 23:50 Calm 10.00 Partly Cloudy FEW041 SCT050 48.2 48.2 100% 30.11 0.0
02 23:35 Calm 10.00 A Few Clouds FEW038 FEW050 50 50 100% 30.11 0.0
Date Time (cdt) Wind (mph) Vis. (mi.) Weather Sky Cond. Air Dwpt Max. Min. Relative Humidity Wind Chill (°F) Heat Index (°F) altimeter (in) sea level (mb) 1 hr 3 hr 6 hr
6 hour
Temperature (ºF) Pressure Precipitation (in)